Time;durP1;ratioP1;P1;durP2;ratioP2;P2;SDS_P1;SDS_P2;PMS_P1;PMS_P2;Temp;Humidity;BMP_temperature;BMP_pressure;BME280_temperature;BME280_humidity;BME280_pressure;Samples;Min_cycle;Max_cycle;Signal;HPM_P1;HPM_P2
2023/03/10 00:00:42;;;;;;;31.35;15.65;;;;;;;;;;4977077;28;20501;-78
2023/03/10 00:03:09;;;;;;;32.28;17.00;;;;;;;;;;4977150;28;20069;-78
2023/03/10 00:05:36;;;;;;;31.25;17.25;;;;;;;;;;4977983;28;20043;-78
2023/03/10 00:08:02;;;;;;;35.78;16.67;;;;;;;;;;4977202;28;20046;-78
2023/03/10 00:10:28;;;;;;;34.00;17.08;;;;;;;;;;4976860;28;20466;-78
2023/03/10 00:12:54;;;;;;;33.15;17.33;;;;;;;;;;4976949;28;20130;-78
2023/03/10 00:15:20;;;;;;;34.35;17.23;;;;;;;;;;4976822;28;20486;-78
2023/03/10 00:17:48;;;;;;;30.80;15.70;;;;;;;;;;4977093;28;20038;-78
2023/03/10 00:20:15;;;;;;;30.17;15.38;;;;;;;;;;4977145;28;20138;-78
2023/03/10 00:22:41;;;;;;;30.08;15.77;;;;;;;;;;4976943;28;20109;-78
2023/03/10 00:25:09;;;;;;;25.90;14.45;;;;;;;;;;4976818;28;20109;-78
2023/03/10 00:27:35;;;;;;;26.35;12.93;;;;;;;;;;4976689;28;20127;-78
2023/03/10 00:30:01;;;;;;;26.17;13.70;;;;;;;;;;4976818;28;20046;-78
2023/03/10 00:32:27;;;;;;;24.08;13.25;;;;;;;;;;4977130;28;20094;-78
2023/03/10 00:34:53;;;;;;;22.75;12.38;;;;;;;;;;4976804;28;20061;-78
2023/03/10 00:37:19;;;;;;;21.90;11.85;;;;;;;;;;4974457;28;20743;-78
2023/03/10 00:39:49;;;;;;;20.83;11.20;;;;;;;;;;4956522;28;20043;-78
2023/03/10 00:42:15;;;;;;;20.42;11.07;;;;;;;;;;4969722;28;20066;-78
2023/03/10 00:44:41;;;;;;;18.88;10.85;;;;;;;;;;4975435;28;20055;-78
2023/03/10 00:47:07;;;;;;;18.02;9.73;;;;;;;;;;4958724;28;20524;-78
2023/03/10 00:49:33;;;;;;;17.48;10.95;;;;;;;;;;4959184;28;20112;-78
2023/03/10 00:51:59;;;;;;;18.27;10.13;;;;;;;;;;4976442;28;20122;-77
2023/03/10 00:54:25;;;;;;;19.42;11.45;;;;;;;;;;4974812;28;20078;-78
2023/03/10 00:56:51;;;;;;;18.48;10.30;;;;;;;;;;4976340;28;20073;-78
2023/03/10 00:59:17;;;;;;;19.17;11.25;;;;;;;;;;4976181;28;20470;-78
2023/03/10 01:01:44;;;;;;;20.50;11.68;;;;;;;;;;4973308;28;20043;-78
2023/03/10 01:04:14;;;;;;;20.63;12.27;;;;;;;;;;4976347;28;20121;-78
2023/03/10 01:06:41;;;;;;;21.63;12.27;;;;;;;;;;4976615;28;20052;-78
2023/03/10 01:09:07;;;;;;;22.45;13.23;;;;;;;;;;4975905;28;20038;-78
2023/03/10 01:11:34;;;;;;;24.98;13.07;;;;;;;;;;4975707;28;20053;-78
2023/03/10 01:14:01;;;;;;;25.33;14.05;;;;;;;;;;4974204;28;20057;-78
2023/03/10 01:16:28;;;;;;;24.55;13.52;;;;;;;;;;4975803;28;20047;-78
2023/03/10 01:18:54;;;;;;;24.83;13.80;;;;;;;;;;4975486;28;20054;-78
2023/03/10 01:21:21;;;;;;;22.42;13.20;;;;;;;;;;4975584;28;20062;-78
2023/03/10 01:23:47;;;;;;;24.40;13.32;;;;;;;;;;4976043;28;20058;-78
2023/03/10 01:26:13;;;;;;;25.13;12.68;;;;;;;;;;4975820;28;20050;-77
2023/03/10 01:28:39;;;;;;;20.48;11.98;;;;;;;;;;4982614;28;20117;-78
2023/03/10 01:31:06;;;;;;;21.25;13.05;;;;;;;;;;4994686;28;20046;-78
2023/03/10 01:33:38;;;;;;;20.80;11.77;;;;;;;;;;4981349;28;20115;-77
2023/03/10 01:36:11;;;;;;;22.60;12.70;;;;;;;;;;4979642;28;20047;-78
2023/03/10 01:38:37;;;;;;;20.27;11.63;;;;;;;;;;4978056;28;20043;-77
2023/03/10 01:41:04;;;;;;;20.98;12.18;;;;;;;;;;4971678;28;20494;-77
2023/03/10 01:43:32;;;;;;;18.80;10.73;;;;;;;;;;4956602;29;20074;-78
2023/03/10 01:46:01;;;;;;;20.17;11.00;;;;;;;;;;4955799;28;20082;-77
2023/03/10 01:48:28;;;;;;;18.65;10.77;;;;;;;;;;4980434;28;20405;-77
2023/03/10 01:50:55;;;;;;;18.00;10.88;;;;;;;;;;4982301;28;20122;-78
2023/03/10 01:53:22;;;;;;;20.48;11.48;;;;;;;;;;4974338;28;20065;-78
2023/03/10 01:55:52;;;;;;;18.88;10.95;;;;;;;;;;4975229;28;20070;-78
2023/03/10 01:58:19;;;;;;;17.63;10.85;;;;;;;;;;4975031;28;20058;-78
2023/03/10 02:00:45;;;;;;;17.58;10.18;;;;;;;;;;4975437;28;20051;-78
2023/03/10 02:03:15;;;;;;;19.10;10.82;;;;;;;;;;4974838;28;20485;-78
2023/03/10 02:05:44;;;;;;;19.13;10.75;;;;;;;;;;4975415;28;20505;-77
2023/03/10 02:08:11;;;;;;;17.42;9.75;;;;;;;;;;4973678;28;20043;-78
2023/03/10 02:10:37;;;;;;;18.45;11.13;;;;;;;;;;4973342;28;20081;-78
2023/03/10 02:13:03;;;;;;;18.13;9.65;;;;;;;;;;4974660;28;20050;-78
2023/03/10 02:15:29;;;;;;;17.58;9.85;;;;;;;;;;4975121;28;20063;-78
2023/03/10 02:17:55;;;;;;;17.63;10.63;;;;;;;;;;4974833;28;20050;-78
2023/03/10 02:20:33;;;;;;;16.75;10.00;;;;;;;;;;4974491;28;20059;-78
2023/03/10 02:22:59;;;;;;;17.17;9.68;;;;;;;;;;4973620;28;20054;-77
2023/03/10 02:25:33;;;;;;;18.02;9.93;;;;;;;;;;4973450;28;20126;-78
2023/03/10 02:27:59;;;;;;;16.23;9.60;;;;;;;;;;4974436;28;20390;-78
2023/03/10 02:30:28;;;;;;;17.35;9.90;;;;;;;;;;4974735;28;20363;-78
2023/03/10 02:32:57;;;;;;;17.05;10.77;;;;;;;;;;4973170;28;20133;-78
2023/03/10 02:35:23;;;;;;;19.27;11.13;;;;;;;;;;4974349;28;20407;-78
2023/03/10 02:37:49;;;;;;;19.40;10.75;;;;;;;;;;4974808;28;20047;-78
2023/03/10 02:40:22;;;;;;;22.05;10.75;;;;;;;;;;4973511;28;20118;-78
2023/03/10 02:42:48;;;;;;;17.70;10.38;;;;;;;;;;4974175;28;20525;-78
2023/03/10 02:45:14;;;;;;;20.65;11.02;;;;;;;;;;4975063;28;20050;-78
2023/03/10 02:47:40;;;;;;;20.40;10.88;;;;;;;;;;4974551;28;20134;-78
2023/03/10 02:50:07;;;;;;;17.98;10.80;;;;;;;;;;4974582;28;20075;-78
2023/03/10 02:52:43;;;;;;;18.05;11.35;;;;;;;;;;4973901;28;20494;-77
2023/03/10 02:55:17;;;;;;;20.67;11.43;;;;;;;;;;4973253;28;20431;-77
2023/03/10 02:57:43;;;;;;;22.67;12.77;;;;;;;;;;4974593;28;20073;-77
2023/03/10 03:00:10;;;;;;;16.88;9.60;;;;;;;;;;4973444;28;20077;-77
2023/03/10 03:02:37;;;;;;;23.75;12.10;;;;;;;;;;4973811;28;20050;-77
2023/03/10 03:05:03;;;;;;;19.40;11.35;;;;;;;;;;4988499;28;20046;-77
2023/03/10 03:07:29;;;;;;;19.88;11.02;;;;;;;;;;4974024;28;20446;-77
2023/03/10 03:09:55;;;;;;;19.33;11.13;;;;;;;;;;4972560;28;20381;-77
2023/03/10 03:12:21;;;;;;;19.55;11.00;;;;;;;;;;4974273;28;20043;-78
2023/03/10 03:14:47;;;;;;;21.55;11.18;;;;;;;;;;4989396;28;20043;-78
2023/03/10 03:17:14;;;;;;;18.90;11.43;;;;;;;;;;4974750;28;20482;-78
2023/03/10 03:19:40;;;;;;;17.77;10.30;;;;;;;;;;4973749;28;20067;-78
2023/03/10 03:22:06;;;;;;;19.33;10.18;;;;;;;;;;4976783;28;20046;-77
2023/03/10 03:24:32;;;;;;;20.73;12.10;;;;;;;;;;4978325;28;20069;-78
2023/03/10 03:26:58;;;;;;;21.70;11.75;;;;;;;;;;4978071;28;20389;-78
2023/03/10 03:29:24;;;;;;;19.63;11.05;;;;;;;;;;4978081;28;20038;-78
2023/03/10 03:31:50;;;;;;;21.05;11.25;;;;;;;;;;4977574;28;20053;-78
2023/03/10 03:34:17;;;;;;;22.15;11.95;;;;;;;;;;4977998;28;20101;-77
2023/03/10 03:36:43;;;;;;;22.83;12.35;;;;;;;;;;4976191;28;20054;-77
2023/03/10 03:39:09;;;;;;;22.35;11.98;;;;;;;;;;4977865;28;20038;-78
2023/03/10 03:41:35;;;;;;;20.63;11.00;;;;;;;;;;4976652;28;20047;-77
2023/03/10 03:44:01;;;;;;;24.70;12.57;;;;;;;;;;4977636;28;20054;-77
2023/03/10 03:46:27;;;;;;;23.52;12.68;;;;;;;;;;4977450;28;20038;-77
2023/03/10 03:48:53;;;;;;;19.23;11.48;;;;;;;;;;4977627;28;20050;-77
2023/03/10 03:51:19;;;;;;;21.42;11.98;;;;;;;;;;4990303;28;20065;-77
2023/03/10 03:53:45;;;;;;;21.80;12.02;;;;;;;;;;4978934;28;20394;-78
2023/03/10 03:56:11;;;;;;;17.88;10.70;;;;;;;;;;4972748;28;20046;-77
2023/03/10 03:58:37;;;;;;;20.77;11.55;;;;;;;;;;4976035;28;20046;-78
2023/03/10 04:01:04;;;;;;;18.48;10.52;;;;;;;;;;4977296;28;20039;-78
2023/03/10 04:03:30;;;;;;;19.17;10.65;;;;;;;;;;4977084;28;20077;-77
2023/03/10 04:05:56;;;;;;;21.15;10.85;;;;;;;;;;4975877;28;20050;-77
2023/03/10 04:08:22;;;;;;;18.05;10.35;;;;;;;;;;4976565;28;20126;-77
2023/03/10 04:10:52;;;;;;;18.17;11.00;;;;;;;;;;4957390;28;20047;-77
2023/03/10 04:13:18;;;;;;;20.65;11.13;;;;;;;;;;4962518;28;20045;-77
2023/03/10 04:15:44;;;;;;;18.42;10.63;;;;;;;;;;4976893;28;20039;-78
2023/03/10 04:18:10;;;;;;;20.60;11.60;;;;;;;;;;4973616;28;20379;-77
2023/03/10 04:20:37;;;;;;;21.00;12.25;;;;;;;;;;4976701;28;20058;-77
2023/03/10 04:23:03;;;;;;;15.88;9.30;;;;;;;;;;4976464;28;20082;-77
2023/03/10 04:25:29;;;;;;;23.45;13.20;;;;;;;;;;4976934;28;20042;-78
2023/03/10 04:27:56;;;;;;;24.10;12.75;;;;;;;;;;4976970;28;20045;-78
2023/03/10 04:30:28;;;;;;;28.23;13.85;;;;;;;;;;4978484;28;20054;-78
2023/03/10 04:32:56;;;;;;;27.42;13.63;;;;;;;;;;4981744;28;20046;-78
2023/03/10 04:35:22;;;;;;;26.55;13.98;;;;;;;;;;4980093;28;20078;-78
2023/03/10 04:37:48;;;;;;;27.05;13.85;;;;;;;;;;4976533;28;20046;-78
2023/03/10 04:40:15;;;;;;;29.88;15.43;;;;;;;;;;4976718;28;20055;-78
2023/03/10 04:42:41;;;;;;;31.67;15.85;;;;;;;;;;4976764;28;20039;-78
2023/03/10 04:45:07;;;;;;;33.17;17.00;;;;;;;;;;4976653;28;20038;-78
2023/03/10 04:47:33;;;;;;;33.30;15.82;;;;;;;;;;4976370;28;20446;-78
2023/03/10 04:50:00;;;;;;;34.70;17.05;;;;;;;;;;4976389;28;20057;-78
2023/03/10 04:52:26;;;;;;;33.95;16.55;;;;;;;;;;4980162;28;20117;-78
2023/03/10 04:54:52;;;;;;;32.47;16.95;;;;;;;;;;4991612;28;20055;-78
2023/03/10 04:57:18;;;;;;;37.40;18.67;;;;;;;;;;4974994;28;20054;-78
2023/03/10 04:59:44;;;;;;;31.65;16.35;;;;;;;;;;4976313;28;20045;-78
2023/03/10 05:02:10;;;;;;;32.65;15.57;;;;;;;;;;4976493;28;20054;-76
2023/03/10 05:04:38;;;;;;;32.30;17.20;;;;;;;;;;4975754;28;20498;-76
2023/03/10 05:07:04;;;;;;;34.38;17.23;;;;;;;;;;4975981;28;20043;-76
2023/03/10 05:09:30;;;;;;;37.40;17.90;;;;;;;;;;4958285;28;20062;-76
2023/03/10 05:11:56;;;;;;;40.30;18.33;;;;;;;;;;4975808;28;20043;-76
2023/03/10 05:14:22;;;;;;;34.40;16.35;;;;;;;;;;4976516;28;20199;-76
2023/03/10 05:16:48;;;;;;;37.25;17.40;;;;;;;;;;4965678;28;20051;-76
2023/03/10 05:19:14;;;;;;;32.15;17.02;;;;;;;;;;4974639;28;20433;-76
2023/03/10 05:21:40;;;;;;;34.05;15.93;;;;;;;;;;4975878;28;20051;-76
2023/03/10 05:24:06;;;;;;;32.70;16.50;;;;;;;;;;4976282;28;20055;-76
2023/03/10 05:26:32;;;;;;;27.00;13.95;;;;;;;;;;4960266;28;20055;-76
2023/03/10 05:28:58;;;;;;;33.38;15.85;;;;;;;;;;4969118;28;20516;-76
2023/03/10 05:31:25;;;;;;;31.45;15.82;;;;;;;;;;4975274;28;20047;-76
2023/03/10 05:33:52;;;;;;;33.00;15.52;;;;;;;;;;4958062;28;20137;-76
2023/03/10 05:36:18;;;;;;;32.97;15.13;;;;;;;;;;4975496;28;20049;-76
2023/03/10 05:38:44;;;;;;;27.92;13.43;;;;;;;;;;4974929;28;20101;-76
2023/03/10 05:41:10;;;;;;;28.73;14.60;;;;;;;;;;4975137;28;20581;-76
2023/03/10 05:43:37;;;;;;;27.23;14.00;;;;;;;;;;4965273;28;20047;-76
2023/03/10 05:46:04;;;;;;;28.23;13.27;;;;;;;;;;4975134;28;20051;-76
2023/03/10 05:48:30;;;;;;;27.88;14.13;;;;;;;;;;4973837;28;20047;-76
2023/03/10 05:50:58;;;;;;;26.23;13.80;;;;;;;;;;4974970;28;20482;-77
2023/03/10 05:53:24;;;;;;;30.95;15.00;;;;;;;;;;4975144;28;20058;-77
2023/03/10 05:55:50;;;;;;;31.05;14.25;;;;;;;;;;4975097;28;20050;-76
2023/03/10 05:58:16;;;;;;;37.55;16.63;;;;;;;;;;4958688;28;20047;-76
2023/03/10 06:00:42;;;;;;;30.35;15.07;;;;;;;;;;4964694;28;20055;-77
2023/03/10 06:03:08;;;;;;;31.08;14.88;;;;;;;;;;4974551;28;20034;-77
2023/03/10 06:05:34;;;;;;;29.80;15.05;;;;;;;;;;4973657;28;20129;-77
2023/03/10 06:08:00;;;;;;;27.63;14.02;;;;;;;;;;4974991;28;20051;-77
2023/03/10 06:10:26;;;;;;;31.05;14.40;;;;;;;;;;4963099;28;20051;-77
2023/03/10 06:12:54;;;;;;;29.80;13.80;;;;;;;;;;4965617;28;20058;-77
2023/03/10 06:15:20;;;;;;;29.08;14.40;;;;;;;;;;4974854;28;20050;-77
2023/03/10 06:17:59;;;;;;;29.73;14.63;;;;;;;;;;4975217;28;20098;-77
2023/03/10 06:20:25;;;;;;;31.23;14.95;;;;;;;;;;4974563;28;20094;-77
2023/03/10 06:22:52;;;;;;;27.90;13.32;;;;;;;;;;4974749;28;20043;-77
2023/03/10 06:25:18;;;;;;;30.77;14.50;;;;;;;;;;4974003;28;20438;-77
2023/03/10 06:27:44;;;;;;;30.10;14.48;;;;;;;;;;4974681;28;20058;-77
2023/03/10 06:30:11;;;;;;;33.13;15.57;;;;;;;;;;4974848;28;20122;-76
2023/03/10 06:32:37;;;;;;;35.22;16.25;;;;;;;;;;4974662;28;20038;-76
2023/03/10 06:35:03;;;;;;;32.22;15.38;;;;;;;;;;4974490;28;20560;-76
2023/03/10 06:37:29;;;;;;;30.80;14.75;;;;;;;;;;4974750;28;20122;-77
2023/03/10 06:39:55;;;;;;;30.15;14.57;;;;;;;;;;4974400;28;20046;-77
2023/03/10 06:42:21;;;;;;;27.48;13.30;;;;;;;;;;4974985;28;20043;-77
2023/03/10 06:44:47;;;;;;;24.30;12.13;;;;;;;;;;4974516;28;20098;-76
2023/03/10 06:47:13;;;;;;;27.02;13.50;;;;;;;;;;4974733;28;20042;-76
2023/03/10 06:49:39;;;;;;;26.42;13.32;;;;;;;;;;4974534;28;20043;-77
2023/03/10 06:52:05;;;;;;;24.20;12.75;;;;;;;;;;4974462;28;20056;-77
2023/03/10 06:54:31;;;;;;;25.58;12.68;;;;;;;;;;4974816;28;20478;-77
2023/03/10 06:56:57;;;;;;;26.08;12.13;;;;;;;;;;4977467;28;20055;-77
2023/03/10 06:59:23;;;;;;;24.77;12.15;;;;;;;;;;4974908;28;20118;-78
2023/03/10 07:01:49;;;;;;;22.92;11.95;;;;;;;;;;4978450;28;20079;-77
2023/03/10 07:04:15;;;;;;;26.88;12.93;;;;;;;;;;4980065;28;20050;-80
2023/03/10 07:06:41;;;;;;;25.90;12.05;;;;;;;;;;4977858;28;20417;-77
2023/03/10 07:09:07;;;;;;;24.52;12.55;;;;;;;;;;4977905;28;20613;-77
2023/03/10 07:11:33;;;;;;;28.40;13.25;;;;;;;;;;4977561;28;22073;-77
2023/03/10 07:13:59;;;;;;;26.42;12.88;;;;;;;;;;4977760;28;20390;-77
2023/03/10 07:16:26;;;;;;;26.77;12.27;;;;;;;;;;4978262;28;20043;-77
2023/03/10 07:18:52;;;;;;;23.85;11.98;;;;;;;;;;4978238;28;20062;-77
2023/03/10 07:21:19;;;;;;;25.73;12.43;;;;;;;;;;4978299;28;20055;-77
2023/03/10 07:23:45;;;;;;;19.33;10.30;;;;;;;;;;4977935;28;20062;-77
2023/03/10 07:26:13;;;;;;;22.00;10.70;;;;;;;;;;4977852;28;20043;-77
2023/03/10 07:28:39;;;;;;;22.60;11.45;;;;;;;;;;4977121;28;20074;-78
2023/03/10 07:31:07;;;;;;;24.25;12.23;;;;;;;;;;4971256;28;20047;-77
2023/03/10 07:33:33;;;;;;;29.15;13.18;;;;;;;;;;4982602;28;20125;-77
2023/03/10 07:36:03;;;;;;;23.27;11.93;;;;;;;;;;4984025;28;20049;-78
2023/03/10 07:38:29;;;;;;;28.02;12.20;;;;;;;;;;4999391;28;20106;-78
2023/03/10 07:40:55;;;;;;;27.50;12.98;;;;;;;;;;4960708;28;20075;-77
2023/03/10 07:43:21;;;;;;;28.27;12.80;;;;;;;;;;4958552;29;20108;-77
2023/03/10 07:45:47;;;;;;;29.25;13.35;;;;;;;;;;4956889;29;20078;-77
2023/03/10 07:48:13;;;;;;;30.17;14.07;;;;;;;;;;4975131;28;20047;-77
2023/03/10 07:50:39;;;;;;;35.95;15.57;;;;;;;;;;4976788;28;20050;-78
2023/03/10 07:53:05;;;;;;;30.02;14.10;;;;;;;;;;4975237;28;20129;-78
2023/03/10 07:55:31;;;;;;;27.80;14.63;;;;;;;;;;4968053;28;20050;-77
2023/03/10 07:57:59;;;;;;;35.00;16.15;;;;;;;;;;4974601;28;20046;-77
2023/03/10 08:00:25;;;;;;;31.95;14.35;;;;;;;;;;4967222;28;20101;-77
2023/03/10 08:02:51;;;;;;;32.90;14.90;;;;;;;;;;4976668;28;20047;-78
2023/03/10 08:05:18;;;;;;;31.13;14.32;;;;;;;;;;4963335;28;20043;-77
2023/03/10 08:07:44;;;;;;;32.05;16.15;;;;;;;;;;4973414;28;20109;-77
2023/03/10 08:10:10;;;;;;;37.30;16.63;;;;;;;;;;4977258;28;20053;-78
2023/03/10 08:12:36;;;;;;;31.15;16.60;;;;;;;;;;4978325;28;20078;-78
2023/03/10 08:15:04;;;;;;;34.38;17.95;;;;;;;;;;4979609;28;20093;-77
2023/03/10 08:17:32;;;;;;;35.25;17.17;;;;;;;;;;4978145;28;20047;-80
2023/03/10 08:19:58;;;;;;;39.28;18.48;;;;;;;;;;4976498;28;20059;-80
2023/03/10 08:22:25;;;;;;;35.90;18.00;;;;;;;;;;4977637;28;20442;-80
2023/03/10 08:24:51;;;;;;;39.22;18.63;;;;;;;;;;4990912;28;20051;-77
2023/03/10 08:27:17;;;;;;;40.35;18.25;;;;;;;;;;4972572;28;20066;-78
2023/03/10 08:29:43;;;;;;;40.58;19.17;;;;;;;;;;4977563;28;20069;-79
2023/03/10 08:32:09;;;;;;;37.65;17.88;;;;;;;;;;4979723;28;20035;-79
2023/03/10 08:34:35;;;;;;;38.35;18.88;;;;;;;;;;4980050;28;20045;-78
2023/03/10 08:37:01;;;;;;;41.65;17.80;;;;;;;;;;4980829;28;20042;-79
2023/03/10 08:39:28;;;;;;;35.67;16.48;;;;;;;;;;4977175;28;20130;-79
2023/03/10 08:41:54;;;;;;;34.08;17.63;;;;;;;;;;4979018;28;20050;-78
2023/03/10 08:44:21;;;;;;;28.52;15.52;;;;;;;;;;4978179;28;20047;-79
2023/03/10 08:46:47;;;;;;;31.00;15.80;;;;;;;;;;4978306;28;20097;-79
2023/03/10 08:49:14;;;;;;;27.35;13.55;;;;;;;;;;4978774;28;20166;-78
2023/03/10 08:51:41;;;;;;;28.25;13.73;;;;;;;;;;4977035;28;20059;-78
2023/03/10 08:54:07;;;;;;;25.25;13.27;;;;;;;;;;4991949;28;20047;-78
2023/03/10 08:56:34;;;;;;;25.95;12.75;;;;;;;;;;4977146;28;20058;-76
2023/03/10 08:59:00;;;;;;;24.70;13.40;;;;;;;;;;4970231;28;20062;-78
2023/03/10 09:01:28;;;;;;;27.90;12.98;;;;;;;;;;4976458;28;20055;-77
2023/03/10 09:03:54;;;;;;;29.33;14.90;;;;;;;;;;4976099;28;20042;-75
2023/03/10 09:06:20;;;;;;;29.17;14.68;;;;;;;;;;4975386;28;20042;-76
2023/03/10 09:08:49;;;;;;;25.85;14.45;;;;;;;;;;4975608;28;20047;-75
2023/03/10 09:11:21;;;;;;;30.63;14.50;;;;;;;;;;4976023;28;20141;-76
2023/03/10 09:13:47;;;;;;;29.63;14.80;;;;;;;;;;4976272;28;20051;-75
2023/03/10 09:16:13;;;;;;;25.33;13.40;;;;;;;;;;4975709;28;20092;-75
2023/03/10 09:18:40;;;;;;;21.73;12.02;;;;;;;;;;4974992;28;20405;-74
2023/03/10 09:21:06;;;;;;;22.85;11.95;;;;;;;;;;4975589;28;20088;-75
2023/03/10 09:23:32;;;;;;;25.92;11.57;;;;;;;;;;4974385;28;20425;-74
2023/03/10 09:25:58;;;;;;;20.85;11.57;;;;;;;;;;4975540;28;20150;-74
2023/03/10 09:28:24;;;;;;;22.65;11.77;;;;;;;;;;4974325;28;20460;-74
2023/03/10 09:30:52;;;;;;;23.65;12.18;;;;;;;;;;4975106;28;20039;-78
2023/03/10 09:33:20;;;;;;;22.55;11.25;;;;;;;;;;4972280;28;20094;-75
2023/03/10 09:35:46;;;;;;;21.88;11.60;;;;;;;;;;4982598;28;20046;-74
2023/03/10 09:38:12;;;;;;;25.40;12.57;;;;;;;;;;4957905;28;20039;-75
2023/03/10 09:40:41;;;;;;;23.63;12.73;;;;;;;;;;4972038;28;20077;-75
2023/03/10 09:43:12;;;;;;;23.88;12.93;;;;;;;;;;4976033;28;20138;-75
2023/03/10 09:46:04;;;;;;;26.00;12.88;;;;;;;;;;4990282;28;20047;-75
2023/03/10 09:48:36;;;;;;;25.80;12.43;;;;;;;;;;4956528;28;20050;-75
2023/03/10 09:51:05;;;;;;;21.70;11.70;;;;;;;;;;4975078;28;20486;-75
2023/03/10 09:53:43;;;;;;;24.25;12.52;;;;;;;;;;4974847;28;20501;-75
2023/03/10 09:56:15;;;;;;;25.30;12.73;;;;;;;;;;4966486;28;20046;-76
2023/03/10 09:58:43;;;;;;;27.40;12.90;;;;;;;;;;4974764;28;20573;-75
2023/03/10 10:01:20;;;;;;;24.05;12.70;;;;;;;;;;4973533;28;20053;-75
2023/03/10 10:03:53;;;;;;;23.60;11.73;;;;;;;;;;4961335;28;20122;-76
2023/03/10 10:06:24;;;;;;;23.23;12.20;;;;;;;;;;4963252;28;20046;-76
2023/03/10 10:08:56;;;;;;;22.50;12.48;;;;;;;;;;4975302;28;20043;-75
2023/03/10 10:11:22;;;;;;;26.52;12.07;;;;;;;;;;4974620;28;20039;-76
2023/03/10 10:13:48;;;;;;;24.83;13.25;;;;;;;;;;4975140;28;20505;-76
2023/03/10 10:16:22;;;;;;;25.38;11.90;;;;;;;;;;4974129;28;20444;-76
2023/03/10 10:18:56;;;;;;;23.55;12.52;;;;;;;;;;4976032;28;20058;-82
2023/03/10 10:21:35;;;;;;;17.27;8.80;;;;;;;;;;4977859;28;20046;-76
2023/03/10 10:24:01;;;;;;;18.38;8.93;;;;;;;;;;4955984;28;20075;-76
2023/03/10 10:26:27;;;;;;;15.82;8.68;;;;;;;;;;4965015;28;20154;-76
2023/03/10 10:28:55;;;;;;;15.93;8.50;;;;;;;;;;4969769;28;20090;-76
2023/03/10 10:31:22;;;;;;;15.90;8.30;;;;;;;;;;4971183;28;20523;-76
2023/03/10 10:34:05;;;;;;;16.70;6.85;;;;;;;;;;4972212;28;20077;-77
2023/03/10 10:36:31;;;;;;;13.10;7.10;;;;;;;;;;4968322;28;20398;-78
2023/03/10 10:38:58;;;;;;;13.20;7.18;;;;;;;;;;4979937;28;20125;-77
2023/03/10 10:41:25;;;;;;;11.85;6.97;;;;;;;;;;4980203;28;20054;-76
2023/03/10 10:43:52;;;;;;;14.20;6.85;;;;;;;;;;4975160;28;20039;-81
2023/03/10 10:46:24;;;;;;;18.70;8.35;;;;;;;;;;4971020;28;20039;-78
2023/03/10 10:49:00;;;;;;;15.50;7.53;;;;;;;;;;4970085;28;20058;-77
2023/03/10 10:51:27;;;;;;;16.77;8.50;;;;;;;;;;4974707;28;20047;-78
2023/03/10 10:53:54;;;;;;;17.38;7.95;;;;;;;;;;4954990;28;20098;-77
2023/03/10 10:56:21;;;;;;;16.60;8.20;;;;;;;;;;4967939;28;20047;-76
2023/03/10 10:59:03;;;;;;;18.73;8.13;;;;;;;;;;4974741;28;20050;-77
2023/03/10 11:01:46;;;;;;;21.92;8.82;;;;;;;;;;4974283;28;20043;-77
2023/03/10 11:04:12;;;;;;;17.75;8.90;;;;;;;;;;4974456;28;20455;-77
2023/03/10 11:06:38;;;;;;;18.33;8.98;;;;;;;;;;4974824;28;20042;-77
2023/03/10 11:09:07;;;;;;;19.17;8.30;;;;;;;;;;4974610;28;20125;-76
2023/03/10 11:11:38;;;;;;;16.48;8.43;;;;;;;;;;4974568;28;20046;-76
2023/03/10 11:14:04;;;;;;;18.52;8.32;;;;;;;;;;4974126;28;20524;-76
2023/03/10 11:16:39;;;;;;;16.20;7.35;;;;;;;;;;4974293;28;20054;-76
2023/03/10 11:19:15;;;;;;;13.93;7.50;;;;;;;;;;4974281;28;20042;-76
2023/03/10 11:21:43;;;;;;;16.70;7.78;;;;;;;;;;4973428;28;20482;-80
2023/03/10 11:24:28;;;;;;;16.83;8.18;;;;;;;;;;4973890;28;20199;-81
2023/03/10 11:26:59;;;;;;;18.23;8.90;;;;;;;;;;4957236;28;20147;-76
2023/03/10 11:29:36;;;;;;;18.08;7.97;;;;;;;;;;4974222;28;20043;-76
2023/03/10 11:32:17;;;;;;;14.75;7.80;;;;;;;;;;4974178;28;20078;-76
2023/03/10 11:34:48;;;;;;;13.80;6.63;;;;;;;;;;4973939;28;20117;-76
2023/03/10 11:37:20;;;;;;;18.63;7.72;;;;;;;;;;4972452;28;20061;-76
2023/03/10 11:39:51;;;;;;;14.25;7.30;;;;;;;;;;4974037;28;20059;-77
2023/03/10 11:42:36;;;;;;;17.70;7.90;;;;;;;;;;4975637;28;20081;-77
2023/03/10 11:45:26;;;;;;;15.63;7.68;;;;;;;;;;4977497;28;20042;-77
2023/03/10 11:47:55;;;;;;;15.30;7.20;;;;;;;;;;4974955;28;20118;-78
2023/03/10 11:50:32;;;;;;;14.85;8.02;;;;;;;;;;4978290;28;20051;-81
2023/03/10 11:53:10;;;;;;;12.90;7.28;;;;;;;;;;4975544;28;20055;-78
2023/03/10 11:55:37;;;;;;;14.57;6.78;;;;;;;;;;4978527;28;20156;-78
2023/03/10 11:58:04;;;;;;;16.50;6.72;;;;;;;;;;4979655;28;20046;-79
2023/03/10 12:00:36;;;;;;;17.50;8.63;;;;;;;;;;4964633;28;20383;-80
2023/03/10 12:03:09;;;;;;;16.20;6.85;;;;;;;;;;4972389;28;20039;-78
2023/03/10 12:05:48;;;;;;;16.13;7.88;;;;;;;;;;4961573;29;20054;-81
2023/03/10 12:08:15;;;;;;;14.73;8.23;;;;;;;;;;4974868;28;20446;-79
2023/03/10 12:10:41;;;;;;;16.05;8.25;;;;;;;;;;4982703;28;20050;-80
2023/03/10 12:13:15;;;;;;;12.68;7.38;;;;;;;;;;4985890;28;20054;-80
2023/03/10 12:15:41;;;;;;;15.55;6.40;;;;;;;;;;4986971;28;20055;-79
2023/03/10 12:18:07;;;;;;;12.07;6.18;;;;;;;;;;4986279;28;20117;-80
2023/03/10 12:20:34;;;;;;;13.02;6.75;;;;;;;;;;4985647;28;20055;-79
2023/03/10 12:23:20;;;;;;;14.65;6.82;;;;;;;;;;4986743;28;20062;-79
2023/03/10 12:25:47;;;;;;;15.32;7.65;;;;;;;;;;4980795;28;20122;-79
2023/03/10 12:28:16;;;;;;;14.07;7.47;;;;;;;;;;4982880;28;20047;-79
2023/03/10 12:30:42;;;;;;;12.35;6.68;;;;;;;;;;4982532;28;20051;-79
2023/03/10 12:33:28;;;;;;;12.95;6.55;;;;;;;;;;4980753;28;20180;-79
2023/03/10 12:35:56;;;;;;;13.63;5.90;;;;;;;;;;4982141;28;20051;-79
2023/03/10 12:38:42;;;;;;;13.32;5.85;;;;;;;;;;4980984;28;20470;-78
2023/03/10 12:41:09;;;;;;;10.63;5.28;;;;;;;;;;4980844;28;20429;-78
2023/03/10 12:43:38;;;;;;;13.05;6.70;;;;;;;;;;4981362;28;20498;-78
2023/03/10 12:46:08;;;;;;;13.90;6.53;;;;;;;;;;4981429;28;20069;-79
2023/03/10 12:48:37;;;;;;;12.23;6.00;;;;;;;;;;4980682;28;20489;-78
2023/03/10 12:51:08;;;;;;;12.32;5.82;;;;;;;;;;4980501;28;20055;-78
2023/03/10 12:53:37;;;;;;;11.40;5.13;;;;;;;;;;4975776;28;20047;-79
2023/03/10 12:56:18;;;;;;;11.10;5.60;;;;;;;;;;4979370;28;20053;-78
2023/03/10 12:58:51;;;;;;;9.90;5.47;;;;;;;;;;4978107;28;20058;-79
2023/03/10 13:01:19;;;;;;;10.45;4.57;;;;;;;;;;4979344;28;20560;-79
2023/03/10 13:03:48;;;;;;;9.10;4.70;;;;;;;;;;4979884;28;20043;-78
2023/03/10 13:06:17;;;;;;;8.45;4.90;;;;;;;;;;4979076;28;20043;-78
2023/03/10 13:08:43;;;;;;;11.35;5.63;;;;;;;;;;4998374;28;20081;-78
2023/03/10 13:11:18;;;;;;;10.95;5.32;;;;;;;;;;4984244;28;20043;-79
2023/03/10 13:13:47;;;;;;;9.60;5.05;;;;;;;;;;4978154;28;20483;-79
2023/03/10 13:16:16;;;;;;;13.32;5.35;;;;;;;;;;4976087;28;20050;-79
2023/03/10 13:18:47;;;;;;;8.05;4.70;;;;;;;;;;4976274;28;20051;-79
2023/03/10 13:21:28;;;;;;;9.55;5.00;;;;;;;;;;4977851;28;20043;-78
2023/03/10 13:23:54;;;;;;;10.90;5.43;;;;;;;;;;4981721;28;20050;-79
2023/03/10 13:26:21;;;;;;;9.27;5.40;;;;;;;;;;4990121;28;20122;-79
2023/03/10 13:29:01;;;;;;;8.80;4.68;;;;;;;;;;4981762;28;20055;-79
2023/03/10 13:31:27;;;;;;;12.43;6.28;;;;;;;;;;4977215;28;20050;-79
2023/03/10 13:33:54;;;;;;;14.77;7.30;;;;;;;;;;4977251;28;20046;-79
2023/03/10 13:36:20;;;;;;;15.13;7.32;;;;;;;;;;4979580;28;20047;-79
2023/03/10 13:38:46;;;;;;;12.35;6.60;;;;;;;;;;4981082;28;20063;-80
2023/03/10 13:41:13;;;;;;;12.82;7.03;;;;;;;;;;4983074;28;20043;-80
2023/03/10 13:43:40;;;;;;;9.70;3.63;;;;;;;;;;4986480;28;20493;-80
2023/03/10 13:46:26;;;;;;;6.65;3.47;;;;;;;;;;4986201;28;20070;-80
2023/03/10 13:48:53;;;;;;;3.60;2.33;;;;;;;;;;4981293;28;20568;-81
2023/03/10 13:51:22;;;;;;;4.07;2.35;;;;;;;;;;4982402;28;20097;-79
2023/03/10 13:53:51;;;;;;;3.88;2.53;;;;;;;;;;4984514;28;20046;-79
2023/03/10 13:56:23;;;;;;;3.95;2.40;;;;;;;;;;4985103;28;20058;-79
2023/03/10 13:58:51;;;;;;;2.95;2.22;;;;;;;;;;4984728;28;20054;-79
2023/03/10 14:01:19;;;;;;;6.68;3.38;;;;;;;;;;4985274;28;20054;-80
2023/03/10 14:04:07;;;;;;;3.05;2.08;;;;;;;;;;4984508;28;20078;-79
2023/03/10 14:06:33;;;;;;;4.65;2.92;;;;;;;;;;4983837;28;20051;-80
2023/03/10 14:09:13;;;;;;;6.63;4.00;;;;;;;;;;4966262;28;20043;-80
2023/03/10 14:11:39;;;;;;;11.35;5.65;;;;;;;;;;4979548;28;20051;-79
2023/03/10 14:14:07;;;;;;;7.03;4.93;;;;;;;;;;4979567;28;20051;-79
2023/03/10 14:16:43;;;;;;;7.45;4.88;;;;;;;;;;4976347;28;20144;-79
2023/03/10 14:19:10;;;;;;;11.68;6.40;;;;;;;;;;4983482;28;20557;-80
2023/03/10 14:21:38;;;;;;;11.02;5.85;;;;;;;;;;4976920;28;20087;-79
2023/03/10 14:24:06;;;;;;;9.25;4.75;;;;;;;;;;4958252;29;20051;-79
2023/03/10 14:26:32;;;;;;;10.65;5.80;;;;;;;;;;4972865;28;20047;-79